Time;durP1;ratioP1;P1;durP2;ratioP2;P2;SDS_P1;SDS_P2;PMS_P1;PMS_P2;Temp;Humidity;BMP_temperature;BMP_pressure;BME280_temperature;BME280_humidity;BME280_pressure;Samples;Min_cycle;Max_cycle;Signal;HPM_P1;HPM_P2
2022/07/20 00:01:39;;;;;;;10.75;5.60;;;29.10;1.00;;;;;;5136487;27;20248;-82
2022/07/20 00:04:05;;;;;;;13.38;6.22;;;28.90;1.00;;;;;;5118657;27;20199;-82
2022/07/20 00:06:31;;;;;;;12.07;6.93;;;28.70;1.00;;;;;;5118920;27;20683;-81
2022/07/20 00:11:41;;;;;;;15.90;8.73;;;28.20;1.00;;;;;;5137303;27;20239;-82
2022/07/20 00:14:07;;;;;;;14.30;9.50;;;28.10;1.00;;;;;;5126219;27;20167;-81
2022/07/20 00:16:34;;;;;;;17.53;10.80;;;28.10;99.90;;;;;;5148514;27;20191;-81
2022/07/20 00:19:10;;;;;;;24.97;11.93;;;27.90;99.90;;;;;;5118978;27;20186;-81
2022/07/20 00:21:36;;;;;;;20.27;11.67;;;27.60;1.00;;;;;;5137232;27;20244;-82
2022/07/20 00:24:02;;;;;;;15.70;11.37;;;27.20;1.00;;;;;;5136747;27;20202;-82
2022/07/20 00:26:27;;;;;;;15.77;12.63;;;27.10;99.90;;;;;;5137055;27;20582;-81
2022/07/20 00:28:53;;;;;;;19.90;13.20;;;26.90;99.90;;;;;;5118475;27;20174;-83
2022/07/20 00:31:20;;;;;;;17.13;14.07;;;26.60;1.00;;;;;;5118794;27;20201;-82
2022/07/20 00:33:48;;;;;;;22.17;15.37;;;26.40;1.00;;;;;;5119681;27;20641;-83
2022/07/20 00:36:17;;;;;;;20.40;16.50;;;26.40;99.90;;;;;;5118345;27;20170;-81
2022/07/20 00:38:43;;;;;;;24.33;16.27;;;26.30;1.00;;;;;;5137154;27;20673;-83
2022/07/20 00:41:11;;;;;;;22.43;17.27;;;26.30;1.00;;;;;;5136832;27;20247;-82
2022/07/20 00:43:55;;;;;;;24.90;18.03;;;26.20;99.90;;;;;;5101453;27;20269;-82
2022/07/20 00:46:23;;;;;;;21.43;19.23;;;26.20;99.90;;;;;;5136525;27;20194;-83
2022/07/20 00:48:48;;;;;;;24.27;19.20;;;26.20;99.90;;;;;;5117982;27;20174;-83
2022/07/20 00:51:15;;;;;;;24.37;20.10;;;26.00;99.90;;;;;;5136602;27;20657;-83
2022/07/20 00:53:41;;;;;;;25.67;21.20;;;25.80;1.00;;;;;;5118199;27;20575;-84
2022/07/20 00:56:07;;;;;;;25.83;21.80;;;25.50;1.00;;;;;;5118100;27;20208;-82
2022/07/20 00:58:33;;;;;;;27.37;20.97;;;25.50;1.00;;;;;;5118357;27;20191;-82
2022/07/20 01:00:59;;;;;;;25.30;22.63;;;25.50;1.00;;;;;;5135254;27;20177;-81
2022/07/20 01:03:25;;;;;;;25.20;21.53;;;25.50;1.00;;;;;;5117424;27;20207;-81
2022/07/20 01:05:51;;;;;;;23.67;21.13;;;25.40;1.00;;;;;;5117778;27;20300;-81
2022/07/20 01:08:17;;;;;;;26.63;22.60;;;25.30;1.00;;;;;;5137677;27;20180;-82
2022/07/20 01:10:43;;;;;;;28.20;21.60;;;25.20;1.00;;;;;;5145656;27;20197;-80
2022/07/20 01:13:09;;;;;;;32.03;23.77;;;25.20;1.00;;;;;;5141037;27;20596;-82
2022/07/20 01:15:34;;;;;;;33.47;23.77;;;25.00;1.00;;;;;;5119736;27;20212;-82
2022/07/20 01:18:00;;;;;;;27.47;23.30;;;25.00;1.00;;;;;;5150945;27;20200;-81
2022/07/20 01:20:28;;;;;;;30.20;22.80;;;25.00;1.00;;;;;;5157090;27;20174;-79
2022/07/20 01:22:54;;;;;;;27.50;23.97;;;25.00;1.00;;;;;;5153755;27;20187;-84
2022/07/20 01:25:19;;;;;;;27.60;24.73;;;25.00;1.00;;;;;;5130053;27;20190;-81
2022/07/20 01:27:45;;;;;;;31.67;24.23;;;24.90;1.00;;;;;;5120434;27;20225;-81
2022/07/20 01:30:11;;;;;;;29.83;24.20;;;24.90;1.00;;;;;;5136089;27;20193;-82
2022/07/20 01:32:37;;;;;;;28.47;24.07;;;24.90;1.00;;;;;;5122024;27;20706;-82
2022/07/20 01:35:03;;;;;;;28.63;24.50;;;24.80;1.00;;;;;;5157532;27;20193;-82
2022/07/20 01:37:30;;;;;;;28.03;24.17;;;24.60;1.00;;;;;;5140446;27;20193;-82
2022/07/20 01:39:56;;;;;;;32.63;25.13;;;24.50;1.00;;;;;;5127835;27;20198;-81
2022/07/20 01:42:24;;;;;;;30.33;25.43;;;24.60;1.00;;;;;;5120126;27;20291;-83
2022/07/20 01:44:50;;;;;;;33.63;25.93;;;24.70;1.00;;;;;;5135432;27;20173;-82
2022/07/20 01:47:16;;;;;;;33.13;25.83;;;24.70;1.00;;;;;;5117321;27;20201;-82
2022/07/20 01:49:42;;;;;;;29.77;25.10;;;24.70;1.00;;;;;;5150553;27;20170;-81
2022/07/20 01:52:08;;;;;;;31.47;25.53;;;24.50;1.00;;;;;;5137125;27;20522;-82
2022/07/20 01:54:34;;;;;;;29.23;26.13;;;24.50;1.00;;;;;;5154918;27;20153;-81
2022/07/20 01:57:00;;;;;;;29.90;25.20;;;24.50;1.00;;;;;;5160332;27;20199;-81
2022/07/20 01:59:27;;;;;;;30.07;25.73;;;24.20;1.00;;;;;;5142099;27;20187;-80
2022/07/20 02:01:56;;;;;;;30.10;24.67;;;24.20;1.00;;;;;;5160662;27;20156;-79
2022/07/20 02:05:00;;;;;;;28.07;24.97;;;24.40;1.00;;;;;;5142760;27;20178;-82
2022/07/20 02:10:48;;;;;;;27.80;24.50;;;24.70;1.00;;;;;;5140179;27;20226;-83
2022/07/20 02:13:16;;;;;;;30.47;25.00;;;24.60;1.00;;;;;;5136242;27;20150;-80
2022/07/20 02:19:05;;;;;;;28.07;24.83;;;24.50;1.00;;;;;;5135061;27;20196;-82
2022/07/20 02:21:30;;;;;;;32.87;25.67;;;24.60;1.00;;;;;;5144860;27;20162;-80
2022/07/20 02:23:56;;;;;;;33.33;27.43;;;24.50;1.00;;;;;;5160230;27;20162;-81
2022/07/20 02:26:24;;;;;;;30.37;27.07;;;24.40;1.00;;;;;;5152372;27;20213;-80
2022/07/20 02:28:50;;;;;;;30.57;25.30;;;24.40;1.00;;;;;;5122601;27;20211;-82
2022/07/20 02:31:20;;;;;;;29.87;26.37;;;24.30;1.00;;;;;;5136705;27;20517;-81
2022/07/20 02:33:58;;;;;;;29.30;26.17;;;24.30;1.00;;;;;;5116397;27;20169;-80
2022/07/20 02:36:24;;;;;;;31.07;25.70;;;24.30;1.00;;;;;;5134554;27;20648;-82
2022/07/20 02:38:50;;;;;;;30.07;25.60;;;24.10;1.00;;;;;;5134439;27;20164;-82
2022/07/20 02:41:15;;;;;;;28.43;24.50;;;24.10;1.00;;;;;;5134134;28;20190;-83
2022/07/20 02:43:41;;;;;;;31.70;25.37;;;24.10;1.00;;;;;;5115811;28;20173;-82
2022/07/20 02:46:07;;;;;;;29.70;25.33;;;24.10;1.00;;;;;;5116137;28;20289;-83
2022/07/20 02:48:33;;;;;;;29.07;25.23;;;24.10;1.00;;;;;;5134329;28;20176;-82
2022/07/20 02:50:58;;;;;;;29.43;25.63;;;24.10;1.00;;;;;;5134745;28;20180;-83
2022/07/20 02:53:24;;;;;;;29.20;25.03;;;24.20;1.00;;;;;;5116070;28;20177;-83
2022/07/20 02:55:50;;;;;;;29.33;25.10;;;24.20;1.00;;;;;;5135339;28;20234;-81
2022/07/20 02:58:16;;;;;;;33.27;25.67;;;24.00;1.00;;;;;;5135301;28;20628;-83
2022/07/20 03:00:42;;;;;;;30.23;25.67;;;24.10;1.00;;;;;;5116177;28;20204;-81
2022/07/20 03:03:09;;;;;;;28.07;23.90;;;24.10;1.00;;;;;;5134312;28;20169;-82
2022/07/20 03:05:35;;;;;;;27.83;24.93;;;24.00;1.00;;;;;;5115846;28;20170;-81
2022/07/20 03:08:00;;;;;;;29.60;25.00;;;23.90;1.00;;;;;;5116559;28;20211;-83
2022/07/20 03:10:27;;;;;;;31.67;24.87;;;24.00;1.00;;;;;;5115706;28;20165;-82
2022/07/20 03:12:52;;;;;;;30.73;25.23;;;24.00;1.00;;;;;;5133237;28;20177;-82
2022/07/20 03:15:18;;;;;;;30.43;24.50;;;24.00;1.00;;;;;;5115541;28;20232;-83
2022/07/20 03:17:49;;;;;;;28.63;24.63;;;24.00;1.00;;;;;;5133968;28;20249;-81
2022/07/20 03:20:34;;;;;;;27.57;24.67;;;23.90;1.00;;;;;;5133780;27;20169;-83
2022/07/20 03:23:02;;;;;;;28.27;25.07;;;24.00;1.00;;;;;;5127908;27;20180;-79
2022/07/20 03:25:28;;;;;;;30.77;25.93;;;23.90;1.00;;;;;;5135060;27;20206;-80
2022/07/20 03:27:57;;;;;;;27.83;24.53;;;23.80;1.00;;;;;;5109140;27;20209;-83
2022/07/20 03:30:23;;;;;;;30.93;26.30;;;23.90;1.00;;;;;;5120605;27;20173;-84
2022/07/20 03:32:52;;;;;;;31.67;26.13;;;23.90;1.00;;;;;;5119965;27;20181;-82
2022/07/20 03:35:18;;;;;;;27.57;24.60;;;24.00;1.00;;;;;;5118203;27;20173;-80
2022/07/20 03:37:43;;;;;;;29.33;25.27;;;23.90;1.00;;;;;;5138301;27;20621;-82
2022/07/20 03:40:09;;;;;;;31.57;26.00;;;23.80;1.00;;;;;;5137444;27;20207;-82
2022/07/20 03:42:36;;;;;;;32.57;26.17;;;23.60;1.00;;;;;;5119094;27;20606;-82
2022/07/20 03:45:02;;;;;;;29.67;25.97;;;23.50;1.00;;;;;;5119628;27;20177;-82
2022/07/20 03:47:27;;;;;;;28.57;24.87;;;23.50;1.00;;;;;;5138417;27;20544;-80
2022/07/20 03:49:53;;;;;;;32.37;27.80;;;23.50;1.00;;;;;;5137561;27;20176;-82
2022/07/20 03:52:20;;;;;;;29.17;26.10;;;23.60;1.00;;;;;;5137250;27;20176;-84
2022/07/20 03:54:46;;;;;;;32.40;26.80;;;23.50;1.00;;;;;;5137250;27;20165;-80
2022/07/20 03:57:12;;;;;;;34.70;28.00;;;23.50;1.00;;;;;;5136965;27;20565;-80
2022/07/20 03:59:37;;;;;;;30.33;26.93;;;23.40;1.00;;;;;;5136593;27;20543;-81
2022/07/20 04:02:04;;;;;;;33.07;25.43;;;23.40;1.00;;;;;;5137209;27;20167;-82
2022/07/20 04:04:30;;;;;;;28.47;25.30;;;23.40;1.00;;;;;;5118889;27;20702;-79
2022/07/20 04:06:56;;;;;;;31.10;26.50;;;23.40;1.00;;;;;;5118868;27;20641;-82
2022/07/20 04:12:08;;;;;;;30.90;26.90;;;23.30;1.00;;;;;;5136697;27;20265;-81
2022/07/20 04:14:34;;;;;;;30.00;26.80;;;23.40;1.00;;;;;;5136562;27;20623;-83
2022/07/20 04:17:01;;;;;;;30.10;26.33;;;23.30;1.00;;;;;;5137615;27;20176;-81
2022/07/20 04:19:26;;;;;;;33.20;26.07;;;23.50;1.00;;;;;;5118600;27;20287;-81
2022/07/20 04:21:58;;;;;;;28.57;25.40;;;23.60;1.00;;;;;;5119460;27;20271;-81
2022/07/20 04:24:25;;;;;;;28.97;25.43;;;23.50;1.00;;;;;;5149665;27;20165;-82
2022/07/20 04:26:51;;;;;;;33.83;26.87;;;23.40;1.00;;;;;;5161261;27;20192;-81
2022/07/20 04:29:16;;;;;;;36.83;26.07;;;23.40;1.00;;;;;;5133860;27;20266;-82
2022/07/20 04:31:45;;;;;;;29.60;25.70;;;23.50;1.00;;;;;;5127121;27;20200;-83
2022/07/20 04:34:14;;;;;;;27.93;24.37;;;23.50;1.00;;;;;;5136779;27;20160;-82
2022/07/20 04:36:40;;;;;;;28.53;24.53;;;23.40;1.00;;;;;;5137111;27;20173;-82
2022/07/20 04:39:05;;;;;;;27.97;24.97;;;23.50;1.00;;;;;;5118452;27;20200;-82
2022/07/20 04:41:31;;;;;;;30.03;24.57;;;23.40;1.00;;;;;;5119009;27;20189;-83
2022/07/20 04:43:57;;;;;;;31.40;25.53;;;23.40;1.00;;;;;;5126007;27;20672;-81
2022/07/20 04:46:23;;;;;;;31.27;23.63;;;23.50;1.00;;;;;;5143374;27;20283;-80
2022/07/20 04:48:48;;;;;;;31.70;24.47;;;23.50;1.00;;;;;;5134489;27;20177;-79
2022/07/20 04:51:14;;;;;;;28.60;23.57;;;23.50;1.00;;;;;;5126742;27;20188;-81
2022/07/20 04:53:43;;;;;;;27.63;23.60;;;23.60;1.00;;;;;;5118740;27;20163;-81
2022/07/20 04:56:10;;;;;;;26.83;23.83;;;23.60;1.00;;;;;;5136718;27;20162;-81
2022/07/20 04:58:36;;;;;;;27.70;23.47;;;23.80;1.00;;;;;;5136384;27;20194;-81
2022/07/20 05:01:01;;;;;;;27.27;23.43;;;23.70;1.00;;;;;;5142648;27;20193;-81
2022/07/20 05:03:27;;;;;;;28.40;22.13;;;23.60;1.00;;;;;;5126919;27;20181;-82
2022/07/20 05:05:53;;;;;;;25.20;22.33;;;23.50;1.00;;;;;;5117627;27;20659;-81
2022/07/20 05:08:19;;;;;;;25.53;21.93;;;23.40;1.00;;;;;;5117745;27;20176;-83
2022/07/20 05:10:44;;;;;;;26.93;22.10;;;23.40;1.00;;;;;;5136359;27;20168;-81
2022/07/20 05:13:10;;;;;;;25.47;21.27;;;23.40;1.00;;;;;;5136310;27;20529;-83
2022/07/20 05:15:36;;;;;;;28.67;21.47;;;23.40;1.00;;;;;;5136506;27;21023;-81
2022/07/20 05:18:02;;;;;;;23.83;19.77;;;23.40;1.00;;;;;;5152303;27;20183;-80
2022/07/20 05:20:27;;;;;;;25.73;20.07;;;23.50;1.00;;;;;;5147820;27;20173;-81
2022/07/20 05:22:53;;;;;;;27.97;20.80;;;23.80;1.00;;;;;;5136633;27;20168;-82
2022/07/20 05:25:20;;;;;;;25.63;19.97;;;23.90;1.00;;;;;;5130041;27;20172;-82
2022/07/20 05:27:46;;;;;;;28.07;20.40;;;24.00;1.00;;;;;;5121456;27;20218;-82
2022/07/20 05:30:13;;;;;;;21.90;19.23;;;24.00;1.00;;;;;;5121880;27;20173;-80
2022/07/20 05:32:39;;;;;;;25.77;20.03;;;23.90;1.00;;;;;;5140686;27;20180;-79
2022/07/20 05:35:08;;;;;;;25.73;20.07;;;23.80;1.00;;;;;;5124519;27;20166;-82
2022/07/20 05:37:34;;;;;;;24.00;18.77;;;23.60;1.00;;;;;;5123403;27;20274;-82
2022/07/20 05:40:00;;;;;;;23.00;18.37;;;23.60;1.00;;;;;;5123045;27;20255;-83
2022/07/20 05:42:32;;;;;;;23.00;18.03;;;23.40;1.00;;;;;;5158675;27;20177;-83
2022/07/20 05:45:00;;;;;;;21.50;17.93;;;23.30;1.00;;;;;;5132655;27;20193;-81
2022/07/20 05:47:29;;;;;;;24.10;17.70;;;23.40;1.00;;;;;;5144656;27;20195;-84
2022/07/20 05:49:59;;;;;;;19.13;17.07;;;23.60;1.00;;;;;;5136241;27;20577;-82
2022/07/20 05:52:26;;;;;;;20.70;16.37;;;23.60;1.00;;;;;;5133953;27;20260;-82
2022/07/20 05:54:52;;;;;;;25.23;16.40;;;23.50;1.00;;;;;;5115263;27;20172;-83
2022/07/20 05:57:17;;;;;;;21.40;15.87;;;23.50;1.00;;;;;;5116067;27;20194;-81
2022/07/20 05:59:43;;;;;;;25.17;15.43;;;23.60;1.00;;;;;;5116180;27;20183;-86
2022/07/20 06:02:09;;;;;;;22.03;15.93;;;23.60;1.00;;;;;;5138674;27;20183;-82
2022/07/20 06:04:35;;;;;;;19.37;15.80;;;23.70;1.00;;;;;;5125543;27;20268;-81
2022/07/20 06:07:01;;;;;;;17.30;13.90;;;23.50;1.00;;;;;;5133666;27;20213;-82
2022/07/20 06:09:26;;;;;;;19.63;14.20;;;23.50;1.00;;;;;;5156533;27;20222;-80
2022/07/20 06:11:52;;;;;;;20.17;14.20;;;23.60;1.00;;;;;;5155786;27;20170;-80
2022/07/20 06:14:18;;;;;;;17.10;13.30;;;23.60;1.00;;;;;;5138097;27;20175;-81
2022/07/20 06:16:44;;;;;;;19.97;14.20;;;23.30;1.00;;;;;;5144729;27;20184;-81
2022/07/20 06:19:11;;;;;;;17.67;12.77;;;23.40;1.00;;;;;;5135020;27;20195;-80
2022/07/20 06:21:38;;;;;;;19.90;13.63;;;23.30;1.00;;;;;;5134527;27;20188;-81
2022/07/20 06:24:05;;;;;;;16.80;12.80;;;23.30;1.00;;;;;;5133130;27;20163;-84
2022/07/20 06:26:31;;;;;;;15.67;12.60;;;23.40;1.00;;;;;;5133483;27;20193;-82
2022/07/20 06:28:57;;;;;;;17.17;11.53;;;23.40;1.00;;;;;;5132767;27;20239;-76
2022/07/20 06:31:23;;;;;;;18.50;12.47;;;23.40;1.00;;;;;;5134412;27;20711;-85
2022/07/20 06:33:48;;;;;;;15.77;11.50;;;23.50;1.00;;;;;;5115632;27;20367;-82
2022/07/20 06:36:16;;;;;;;17.73;11.60;;;23.50;1.00;;;;;;5116673;28;20195;-84
2022/07/20 06:38:42;;;;;;;23.23;10.93;;;23.40;1.00;;;;;;5135854;27;20172;-82
2022/07/20 06:41:07;;;;;;;18.70;10.53;;;23.30;1.00;;;;;;5131296;27;20222;-83
2022/07/20 06:43:36;;;;;;;16.47;10.60;;;23.30;1.00;;;;;;5117967;28;20181;-82
2022/07/20 06:46:02;;;;;;;14.90;9.90;;;23.40;1.00;;;;;;5134411;28;20194;-84
2022/07/20 06:48:28;;;;;;;17.40;10.73;;;23.50;1.00;;;;;;5116292;28;20230;-84
2022/07/20 06:50:53;;;;;;;17.93;10.53;;;23.70;1.00;;;;;;5114443;28;20211;-85
2022/07/20 06:53:19;;;;;;;15.53;10.50;;;23.90;1.00;;;;;;5114550;28;20653;-84
2022/07/20 06:55:45;;;;;;;17.37;10.93;;;24.10;1.00;;;;;;5114152;27;20202;-84
2022/07/20 06:58:11;;;;;;;12.93;9.57;;;24.20;1.00;;;;;;5116990;27;20197;-85
2022/07/20 07:00:37;;;;;;;14.47;9.97;;;24.40;1.00;;;;;;5118012;27;20749;-86
2022/07/20 07:03:03;;;;;;;12.70;9.43;;;24.50;1.00;;;;;;5117524;27;20202;-83
2022/07/20 07:05:29;;;;;;;17.87;9.87;;;24.40;1.00;;;;;;5135984;27;20453;-87
2022/07/20 07:07:54;;;;;;;15.23;9.43;;;24.40;1.00;;;;;;5117939;27;20673;-85
2022/07/20 07:10:20;;;;;;;15.17;10.33;;;24.10;1.00;;;;;;5136382;27;20221;-84
2022/07/20 07:12:47;;;;;;;13.77;10.10;;;23.60;1.00;;;;;;5117895;27;20897;-87
2022/07/20 07:15:13;;;;;;;13.63;9.47;;;23.40;1.00;;;;;;5118452;27;20513;-83
2022/07/20 07:17:38;;;;;;;14.57;8.97;;;23.20;1.00;;;;;;5149800;27;20173;-84
2022/07/20 07:20:05;;;;;;;14.77;9.23;;;23.00;1.00;;;;;;5153964;27;20174;-83
2022/07/20 07:22:32;;;;;;;12.27;8.60;;;23.00;1.00;;;;;;5120322;27;20163;-82
2022/07/20 07:24:58;;;;;;;11.73;7.67;;;23.00;1.00;;;;;;5117784;27;20259;-81
2022/07/20 07:27:23;;;;;;;12.77;8.50;;;22.80;1.00;;;;;;5118060;27;20381;-83
2022/07/20 07:29:49;;;;;;;13.57;8.80;;;22.80;1.00;;;;;;5138511;27;20170;-87
2022/07/20 07:32:16;;;;;;;13.03;8.53;;;23.00;1.00;;;;;;5117447;27;20233;-83
2022/07/20 07:34:42;;;;;;;10.77;8.27;;;23.30;1.00;;;;;;5119247;27;20173;-83
2022/07/20 07:37:08;;;;;;;11.13;8.10;;;23.50;1.00;;;;;;5127247;27;20215;-89
2022/07/20 07:39:33;;;;;;;15.33;8.83;;;23.50;1.00;;;;;;5139233;27;20180;-83
2022/07/20 07:41:59;;;;;;;11.17;8.50;;;23.40;1.00;;;;;;5131380;27;20232;-82
2022/07/20 07:44:26;;;;;;;12.80;7.73;;;23.10;1.00;;;;;;5125020;27;20534;-85
2022/07/20 07:46:55;;;;;;;13.27;7.93;;;23.10;1.00;;;;;;5139935;27;20198;-85
2022/07/20 07:49:24;;;;;;;10.43;7.70;;;22.80;1.00;;;;;;5119047;27;20236;-85
2022/07/20 07:51:49;;;;;;;14.50;8.47;;;22.80;1.00;;;;;;5137604;27;20276;-85
2022/07/20 07:54:15;;;;;;;13.27;7.87;;;22.80;1.00;;;;;;5119662;27;20234;-84
2022/07/20 07:56:41;;;;;;;13.33;8.03;;;22.90;1.00;;;;;;5150842;27;20187;-83
2022/07/20 07:59:07;;;;;;;11.63;8.10;;;22.90;1.00;;;;;;5146858;27;20182;-83
2022/07/20 08:01:34;;;;;;;11.60;8.43;;;22.60;1.00;;;;;;5106072;27;20178;-85
2022/07/20 08:04:01;;;;;;;11.03;8.07;;;22.80;1.00;;;;;;5136755;27;20171;-84
2022/07/20 08:06:28;;;;;;;9.60;7.83;;;23.10;1.00;;;;;;5134262;27;20679;-81
2022/07/20 08:08:55;;;;;;;11.13;8.17;;;23.30;1.00;;;;;;5115305;27;20715;-83
2022/07/20 08:11:21;;;;;;;11.80;7.90;;;23.50;1.00;;;;;;5134702;27;20191;-83
2022/07/20 08:13:46;;;;;;;12.03;7.63;;;23.60;1.00;;;;;;5133301;27;20187;-82
2022/07/20 08:16:13;;;;;;;11.30;8.40;;;23.40;1.00;;;;;;5131922;27;20184;-82
2022/07/20 08:18:39;;;;;;;17.70;9.20;;;23.30;1.00;;;;;;5136336;27;20226;-82
2022/07/20 08:21:05;;;;;;;14.87;8.67;;;23.30;1.00;;;;;;5137548;27;20183;-82
2022/07/20 08:23:31;;;;;;;12.83;8.80;;;23.40;1.00;;;;;;5134087;27;20164;-82
2022/07/20 08:25:58;;;;;;;12.30;8.50;;;23.50;1.00;;;;;;5115331;27;20180;-84
2022/07/20 08:28:24;;;;;;;11.60;9.37;;;23.60;1.00;;;;;;5134390;27;20170;-81
2022/07/20 08:30:52;;;;;;;14.63;9.23;;;23.70;1.00;;;;;;5132907;27;20178;-82
2022/07/20 08:33:19;;;;;;;13.10;9.03;;;23.70;1.00;;;;;;5113708;27;20180;-80
2022/07/20 08:35:44;;;;;;;14.97;9.30;;;23.60;1.00;;;;;;5132221;27;20165;-83
2022/07/20 08:38:10;;;;;;;13.53;9.70;;;23.60;1.00;;;;;;5133744;27;20533;-82
2022/07/20 08:40:36;;;;;;;13.37;9.03;;;23.50;1.00;;;;;;5132508;27;20648;-81
2022/07/20 08:43:03;;;;;;;13.07;9.33;;;23.50;1.00;;;;;;5133156;27;20647;-83
2022/07/20 08:45:29;;;;;;;12.63;10.33;;;23.50;1.00;;;;;;5118125;27;20881;-83
2022/07/20 08:48:00;;;;;;;14.70;11.10;;;23.50;1.00;;;;;;5139489;27;20213;-83
2022/07/20 08:50:28;;;;;;;16.03;10.90;;;23.40;1.00;;;;;;5131583;27;20207;-84
2022/07/20 08:52:56;;;;;;;16.97;10.30;;;23.30;1.00;;;;;;5129154;27;20225;-85
2022/07/20 08:55:26;;;;;;;15.37;10.63;;;23.40;1.00;;;;;;5121713;27;20268;-85
2022/07/20 08:57:59;;;;;;;16.50;10.43;;;23.50;1.00;;;;;;5116439;27;20301;-83
2022/07/20 09:00:39;;;;;;;13.93;10.60;;;23.50;1.00;;;;;;5118469;27;20176;-84
2022/07/20 09:03:07;;;;;;;16.07;12.10;;;23.50;1.00;;;;;;5133004;27;20644;-82
2022/07/20 09:05:35;;;;;;;17.47;11.70;;;23.50;1.00;;;;;;5101591;27;20683;-86
2022/07/20 09:08:05;;;;;;;14.17;11.27;;;23.60;1.00;;;;;;5137612;27;20214;-85
2022/07/20 09:10:36;;;;;;;14.67;12.10;;;23.70;1.00;;;;;;5124467;27;20252;-87
2022/07/20 09:13:17;;;;;;;18.70;13.33;;;23.70;1.00;;;;;;5138690;27;20172;-85
2022/07/20 09:15:47;;;;;;;16.47;11.80;;;23.80;1.00;;;;;;5135766;27;20236;-83
2022/07/20 09:18:19;;;;;;;18.63;12.87;;;23.80;1.00;;;;;;5152165;27;20193;-85
2022/07/20 09:20:50;;;;;;;19.17;12.60;;;23.80;1.00;;;;;;5122061;27;20211;-85
2022/07/20 09:23:31;;;;;;;20.27;12.93;;;23.70;1.60;;;;;;5117452;27;20177;-82
2022/07/20 09:26:00;;;;;;;15.87;12.37;;;23.60;8.00;;;;;;5116883;27;20181;-82
2022/07/20 09:28:40;;;;;;;15.63;13.07;;;23.60;7.90;;;;;;5118140;27;20205;-83
2022/07/20 09:31:21;;;;;;;18.17;12.07;;;23.60;2.90;;;;;;5119005;27;20712;-84
2022/07/20 09:33:54;;;;;;;15.57;12.37;;;23.70;1.00;;;;;;5117836;27;20178;-82
2022/07/20 09:36:21;;;;;;;15.57;12.27;;;23.90;1.00;;;;;;5134998;27;20174;-84
2022/07/20 09:38:47;;;;;;;18.70;13.57;;;24.00;1.00;;;;;;5138821;27;20169;-82
2022/07/20 09:41:28;;;;;;;17.10;12.83;;;24.00;1.00;;;;;;5138008;27;20263;-85
2022/07/20 09:43:56;;;;;;;15.37;11.83;;;24.00;1.00;;;;;;5126584;27;20203;-81
2022/07/20 09:46:24;;;;;;;15.53;12.47;;;24.10;1.00;;;;;;5138440;27;20281;-83
2022/07/20 09:48:55;;;;;;;17.70;12.70;;;24.10;1.00;;;;;;5119705;27;20630;-84
2022/07/20 09:51:32;;;;;;;15.37;12.40;;;24.30;1.00;;;;;;5138536;27;20168;-84
2022/07/20 09:54:02;;;;;;;14.43;12.90;;;24.50;1.00;;;;;;5137842;27;20154;-84
2022/07/20 09:56:29;;;;;;;16.40;12.00;;;24.50;1.00;;;;;;5120542;27;20186;-83
2022/07/20 09:58:56;;;;;;;16.17;11.00;;;24.70;1.00;;;;;;5143717;27;20185;-82
2022/07/20 10:01:24;;;;;;;13.97;11.33;;;24.70;1.00;;;;;;5137237;27;20189;-84
2022/07/20 10:03:52;;;;;;;15.47;11.70;;;24.90;1.00;;;;;;5117779;27;20170;-84
2022/07/20 10:06:19;;;;;;;19.60;11.10;;;25.00;1.00;;;;;;5119548;27;20247;-84
2022/07/20 10:08:46;;;;;;;15.43;11.43;;;25.00;1.00;;;;;;5121912;27;20235;-84
2022/07/20 10:11:12;;;;;;;14.83;11.33;;;25.10;1.00;;;;;;5127823;27;20589;-82
2022/07/20 10:13:40;;;;;;;15.07;9.87;;;25.40;1.00;;;;;;5132398;27;20181;-83
2022/07/20 10:16:29;;;;;;;11.33;8.20;;;25.50;1.00;;;;;;5146453;27;20249;-83
2022/07/20 10:18:59;;;;;;;12.23;8.20;;;25.40;1.00;;;;;;5144446;27;20195;-82
2022/07/20 10:21:37;;;;;;;11.77;7.60;;;25.20;1.00;;;;;;5119484;27;20178;-84
2022/07/20 10:24:27;;;;;;;10.27;8.73;;;25.10;1.00;;;;;;5120640;27;20264;-83
2022/07/20 10:27:02;;;;;;;12.67;9.30;;;24.90;1.00;;;;;;5118761;27;20208;-84
2022/07/20 10:29:32;;;;;;;13.43;8.93;;;25.00;1.00;;;;;;5120142;27;20234;-84
2022/07/20 10:32:11;;;;;;;13.03;8.53;;;25.00;1.00;;;;;;5150881;27;20225;-83
2022/07/20 10:34:45;;;;;;;10.07;7.53;;;25.20;1.00;;;;;;5139633;28;20277;-83
2022/07/20 10:37:34;;;;;;;12.10;7.53;;;25.30;1.00;;;;;;5141157;27;20174;-84
2022/07/20 10:40:16;;;;;;;8.60;7.10;;;25.30;1.00;;;;;;5119734;28;20572;-84
2022/07/20 10:42:53;;;;;;;11.60;7.83;;;24.90;1.00;;;;;;5118400;27;20283;-83
2022/07/20 10:45:27;;;;;;;13.77;7.80;;;25.00;1.00;;;;;;5137143;27;20200;-84
2022/07/20 10:47:57;;;;;;;8.90;7.67;;;25.10;1.00;;;;;;5120107;28;20218;-84
2022/07/20 10:50:31;;;;;;;9.30;7.57;;;25.20;1.00;;;;;;5137657;28;20169;-84
2022/07/20 10:53:10;;;;;;;12.63;8.00;;;25.20;1.00;;;;;;5117470;28;20223;-83
2022/07/20 10:55:35;;;;;;;9.13;7.90;;;25.20;1.00;;;;;;5117385;28;20170;-83
2022/07/20 10:58:03;;;;;;;10.60;8.27;;;25.40;1.00;;;;;;5135897;28;20158;-83
2022/07/20 11:00:30;;;;;;;8.67;7.77;;;25.30;1.00;;;;;;5118220;28;20275;-83
2022/07/20 11:02:57;;;;;;;10.43;8.23;;;25.40;1.00;;;;;;5118022;28;20661;-84
2022/07/20 11:05:23;;;;;;;9.60;8.17;;;25.50;1.00;;;;;;5120440;28;20166;-84
2022/07/20 11:07:49;;;;;;;9.70;7.67;;;25.60;1.00;;;;;;5117907;28;20796;-83
2022/07/20 11:10:21;;;;;;;8.63;7.10;;;25.70;1.00;;;;;;5120279;28;20312;-84
2022/07/20 11:12:58;;;;;;;9.53;7.70;;;25.70;1.00;;;;;;5117227;28;20702;-84
2022/07/20 11:15:39;;;;;;;9.57;7.93;;;25.80;1.00;;;;;;5116752;28;20174;-84
2022/07/20 11:18:06;;;;;;;10.90;8.23;;;25.50;1.00;;;;;;5117177;28;20658;-83
2022/07/20 11:20:32;;;;;;;9.07;8.10;;;25.10;1.00;;;;;;5117328;28;20171;-84
2022/07/20 11:23:01;;;;;;;10.17;8.03;;;25.00;1.00;;;;;;5117913;28;20193;-84
2022/07/20 11:25:44;;;;;;;10.53;8.33;;;25.10;1.00;;;;;;5116981;28;20547;-82
2022/07/20 11:28:11;;;;;;;12.13;8.50;;;25.10;1.00;;;;;;5119542;28;20289;-83
2022/07/20 11:30:37;;;;;;;12.60;9.47;;;25.00;1.00;;;;;;5117281;28;20163;-86
2022/07/20 11:33:03;;;;;;;9.37;8.20;;;25.10;1.00;;;;;;5135711;28;20178;-84
2022/07/20 11:35:29;;;;;;;11.17;8.07;;;25.30;1.00;;;;;;5118761;28;20171;-84
2022/07/20 11:37:55;;;;;;;11.13;8.57;;;25.20;1.00;;;;;;5117845;28;20174;-84
2022/07/20 11:40:22;;;;;;;11.33;9.20;;;25.00;1.00;;;;;;5116336;28;20174;-84
2022/07/20 11:43:11;;;;;;;10.90;9.20;;;24.80;1.00;;;;;;5118465;27;20186;-84
2022/07/20 11:45:38;;;;;;;10.40;9.23;;;25.00;1.00;;;;;;5139149;27;20235;-83
2022/07/20 11:48:22;;;;;;;12.00;9.13;;;25.20;1.00;;;;;;5120642;27;20221;-84
2022/07/20 11:50:48;;;;;;;11.90;9.40;;;25.40;1.00;;;;;;5121909;27;20174;-83
2022/07/20 11:53:34;;;;;;;12.87;9.90;;;25.70;1.00;;;;;;5121813;27;20872;-84
2022/07/20 11:56:04;;;;;;;11.60;9.40;;;26.00;1.00;;;;;;5122917;27;20174;-83
2022/07/20 11:58:38;;;;;;;12.57;9.50;;;26.20;1.00;;;;;;5105159;27;20578;-81
2022/07/20 12:01:06;;;;;;;11.73;9.50;;;25.90;1.00;;;;;;5141689;27;20162;-85
2022/07/20 12:03:35;;;;;;;16.00;10.53;;;25.40;1.00;;;;;;5121626;27;20174;-85
2022/07/20 12:06:06;;;;;;;16.60;10.90;;;25.20;1.00;;;;;;5122265;27;20174;-84
2022/07/20 12:08:32;;;;;;;12.13;9.93;;;25.00;1.00;;;;;;5122981;27;20656;-85
2022/07/20 12:10:58;;;;;;;13.50;11.00;;;24.90;1.00;;;;;;5122877;27;20202;-84
2022/07/20 12:13:26;;;;;;;12.27;9.90;;;24.90;1.00;;;;;;5121921;27;20189;-84
2022/07/20 12:15:53;;;;;;;13.97;11.33;;;25.00;1.00;;;;;;5139228;27;20159;-83
2022/07/20 12:18:37;;;;;;;12.43;10.70;;;25.00;1.00;;;;;;5143507;27;20190;-84
2022/07/20 12:21:05;;;;;;;12.30;9.93;;;25.10;1.00;;;;;;5158932;27;20166;-84
2022/07/20 12:23:34;;;;;;;12.40;10.00;;;25.30;1.00;;;;;;5150698;27;20226;-83
2022/07/20 12:26:00;;;;;;;23.80;17.83;;;25.40;1.00;;;;;;5121782;27;20166;-86
2022/07/20 12:28:36;;;;;;;18.93;14.40;;;25.60;1.00;;;;;;5141942;27;20171;-85
2022/07/20 12:31:29;;;;;;;14.57;11.90;;;25.50;1.00;;;;;;5145163;27;20324;-83
2022/07/20 12:34:05;;;;;;;12.50;10.57;;;25.50;1.00;;;;;;5132140;27;20182;-84
2022/07/20 12:36:35;;;;;;;13.20;10.23;;;25.40;1.00;;;;;;5128510;27;20174;-84
2022/07/20 12:39:03;;;;;;;11.70;10.23;;;25.30;1.00;;;;;;5133824;27;20173;-83
2022/07/20 12:41:29;;;;;;;13.53;9.73;;;25.30;1.00;;;;;;5161399;27;20174;-84
2022/07/20 12:43:55;;;;;;;11.90;10.03;;;25.30;1.00;;;;;;5160266;27;20189;-85
2022/07/20 12:46:21;;;;;;;12.23;10.43;;;25.30;1.00;;;;;;5150512;27;20186;-84
2022/07/20 12:48:50;;;;;;;13.90;10.10;;;25.30;1.00;;;;;;5133249;27;20198;-84
2022/07/20 12:51:20;;;;;;;14.07;10.43;;;25.30;1.00;;;;;;5121577;27;20487;-84
2022/07/20 12:53:48;;;;;;;12.73;10.00;;;25.40;1.00;;;;;;5120249;27;20178;-85
2022/07/20 12:56:15;;;;;;;11.63;9.97;;;25.40;1.00;;;;;;5120629;27;20170;-83
2022/07/20 12:58:41;;;;;;;12.63;10.13;;;25.40;1.00;;;;;;5140816;27;20173;-84